Startpagina
METAR-TAF:

METAR-TAF

Vliegvelden :

Fort-de-France, Martinique

breedte: 14-36N, lengte: 061-00W, hoogte: 5 m

Actueel weer

Dit bericht is 38 minuten geleden gemaakt, om 13:00 UTC
Wind 10 kt uit het oostzuidoosten
Temperatuur 30°C
Vochtigheid 62%
Druk 1015 hPa
Zicht 10 km of meer
Verspreide wolken op 3100 ft

METAR: TFFF 101300Z AUTO 12010KT 9999 SCT031 30/22 Q1015 NOSIG

Tijdstip: 09:38 (13:38 UTC)

Verwachting

Dit bericht is 3 uur en het 38 minuten geleden gemaakt, om 10:00 UTC
Verwachting geldig van 10 om 12 UTC tot 11 om 12 UTC
Wind 8 kt uit het oostzuidoosten
Zicht 10 km of meer
Verspreide wolken op 3500 ft

TAF: TFFF 101000Z 1012/1112 12008KT 9999 SCT035

Waarnemingen en weersverwachtingen van meer dan 4000 vliegvelden (METAR en TAF).

De beschikbare stations zijn de gele en rode punten op de kaart.

Ga met uw muis naar het station om de naam te zien.

Klik dan om waarnemingen en weersverwachtingen te zien.

kaart wijzigen: klik op de groene knoppen met een zwart kruis om in te zoomen, op de groene knop met een streepje om uit te zoomen of op de groene pijlen voor aangrenzende kaarten.


METAR-TAF: